Lubbock, Texas
Current Conditions -  °F | °C
As of 4:53 PM on Tuesday 21 Oct 2014 (Local Time) from KLBB Reporting Station
Few Clouds Few Clouds  
Wind Chill: 24°   Ceiling: Unl
Heat Index: 24°   Visibility: 10mi
Dew Point:   Wind: 12mph
Humidity: 40%   Direction: 130°SE
Pressure: 30.04"   Gusts: NA
Location:  33.59°N, 101.85°W
Report Text: KLBB 212153Z 13010KT 10SM FEW055 FEW250 24/09 A3004 RMK AO2 SLP136 T02390094
Loading
Personal Weather Stations






























Interactive Weather Map
Tropical Storm Tracking
New forecast layout! Learn more

10-Day Weather Forecast

Advertisements
Track Severe Weather on mobile